sensor_id;sensor_type;location;lat;lon;timestamp;pressure;altitude;pressure_sealevel;temperature;humidity
70589;BME280;58152;49.202;18.744;2023-08-17T00:01:23;97711.56;;;25.31;56.82
70589;BME280;58152;49.202;18.744;2023-08-17T00:03:48;97710.88;;;25.29;56.84
70589;BME280;58152;49.202;18.744;2023-08-17T00:06:14;97715.84;;;25.24;56.94
70589;BME280;58152;49.202;18.744;2023-08-17T00:08:39;97714.72;;;25.27;57.12
70589;BME280;58152;49.202;18.744;2023-08-17T00:11:05;97719.91;;;25.28;56.85
70589;BME280;58152;49.202;18.744;2023-08-17T00:13:30;97717.00;;;25.22;57.17
70589;BME280;58152;49.202;18.744;2023-08-17T00:15:56;97709.41;;;25.17;57.38
70589;BME280;58152;49.202;18.744;2023-08-17T00:18:21;97707.72;;;25.16;57.23
70589;BME280;58152;49.202;18.744;2023-08-17T00:20:47;97700.34;;;25.18;56.77
70589;BME280;58152;49.202;18.744;2023-08-17T00:23:13;97698.97;;;25.14;57.19
70589;BME280;58152;49.202;18.744;2023-08-17T00:25:38;97706.88;;;25.16;57.23
70589;BME280;58152;49.202;18.744;2023-08-17T00:28:04;97718.47;;;25.16;57.40
70589;BME280;58152;49.202;18.744;2023-08-17T00:30:30;97705.78;;;25.08;57.54
70589;BME280;58152;49.202;18.744;2023-08-17T00:32:55;97711.28;;;25.07;57.35
70589;BME280;58152;49.202;18.744;2023-08-17T00:35:21;97719.47;;;25.05;57.12
70589;BME280;58152;49.202;18.744;2023-08-17T00:37:46;97718.09;;;25.01;56.96
70589;BME280;58152;49.202;18.744;2023-08-17T00:40:12;97717.13;;;25.02;56.88
70589;BME280;58152;49.202;18.744;2023-08-17T00:42:37;97710.34;;;24.98;57.00
70589;BME280;58152;49.202;18.744;2023-08-17T00:45:03;97714.63;;;24.91;56.91
70589;BME280;58152;49.202;18.744;2023-08-17T00:47:28;97712.25;;;24.88;56.79
70589;BME280;58152;49.202;18.744;2023-08-17T00:49:55;97709.88;;;24.85;56.61
70589;BME280;58152;49.202;18.744;2023-08-17T00:52:21;97719.44;;;24.88;56.84
70589;BME280;58152;49.202;18.744;2023-08-17T00:54:46;97731.06;;;24.88;56.81
70589;BME280;58152;49.202;18.744;2023-08-17T00:57:12;97731.19;;;24.87;56.74
70589;BME280;58152;49.202;18.744;2023-08-17T00:59:38;97726.59;;;24.79;56.43
70589;BME280;58152;49.202;18.744;2023-08-17T01:02:04;97726.31;;;24.72;56.70
70589;BME280;58152;49.202;18.744;2023-08-17T01:04:31;97728.59;;;24.67;57.06
70589;BME280;58152;49.202;18.744;2023-08-17T01:06:56;97726.38;;;24.63;56.95
70589;BME280;58152;49.202;18.744;2023-08-17T01:09:22;97715.63;;;24.63;57.29
70589;BME280;58152;49.202;18.744;2023-08-17T01:11:53;97711.84;;;24.65;57.12
70589;BME280;58152;49.202;18.744;2023-08-17T01:14:35;97710.44;;;24.61;57.93
70589;BME280;58152;49.202;18.744;2023-08-17T01:17:10;97713.78;;;24.63;58.37
70589;BME280;58152;49.202;18.744;2023-08-17T01:19:38;97716.63;;;24.62;57.96
70589;BME280;58152;49.202;18.744;2023-08-17T01:22:05;97718.94;;;24.56;58.23
70589;BME280;58152;49.202;18.744;2023-08-17T01:24:30;97720.91;;;24.54;58.47
70589;BME280;58152;49.202;18.744;2023-08-17T01:26:56;97707.25;;;24.48;58.54
70589;BME280;58152;49.202;18.744;2023-08-17T01:29:22;97709.09;;;24.47;58.58
70589;BME280;58152;49.202;18.744;2023-08-17T01:35:31;97709.22;;;24.46;59.92
70589;BME280;58152;49.202;18.744;2023-08-17T01:37:58;97702.19;;;24.35;59.08
70589;BME280;58152;49.202;18.744;2023-08-17T01:40:27;97701.63;;;24.31;59.06
70589;BME280;58152;49.202;18.744;2023-08-17T01:42:54;97702.34;;;24.33;58.73
70589;BME280;58152;49.202;18.744;2023-08-17T01:45:20;97714.19;;;24.31;59.13
70589;BME280;58152;49.202;18.744;2023-08-17T01:47:45;97710.41;;;24.24;59.18
70589;BME280;58152;49.202;18.744;2023-08-17T01:50:11;97709.97;;;24.19;59.46
70589;BME280;58152;49.202;18.744;2023-08-17T01:52:36;97706.47;;;24.18;59.39
70589;BME280;58152;49.202;18.744;2023-08-17T01:55:02;97698.72;;;24.15;59.65
70589;BME280;58152;49.202;18.744;2023-08-17T01:57:27;97694.94;;;24.08;59.44
70589;BME280;58152;49.202;18.744;2023-08-17T01:59:53;97692.97;;;24.00;59.79
70589;BME280;58152;49.202;18.744;2023-08-17T02:02:19;97700.72;;;24.03;59.91
70589;BME280;58152;49.202;18.744;2023-08-17T02:04:44;97691.84;;;24.03;60.16
70589;BME280;58152;49.202;18.744;2023-08-17T02:07:09;97693.69;;;24.02;60.18
70589;BME280;58152;49.202;18.744;2023-08-17T02:09:35;97696.09;;;24.05;60.06
70589;BME280;58152;49.202;18.744;2023-08-17T02:12:00;97698.91;;;24.04;60.25
70589;BME280;58152;49.202;18.744;2023-08-17T02:14:25;97692.97;;;24.00;60.03
70589;BME280;58152;49.202;18.744;2023-08-17T02:16:52;97702.56;;;24.03;59.98
70589;BME280;58152;49.202;18.744;2023-08-17T02:19:17;97699.31;;;23.99;60.42
70589;BME280;58152;49.202;18.744;2023-08-17T02:21:43;97692.97;;;24.00;60.15
70589;BME280;58152;49.202;18.744;2023-08-17T02:24:08;97708.22;;;24.00;60.31
70589;BME280;58152;49.202;18.744;2023-08-17T02:26:34;97705.13;;;23.95;60.56
70589;BME280;58152;49.202;18.744;2023-08-17T02:28:59;97709.66;;;23.84;60.91
70589;BME280;58152;49.202;18.744;2023-08-17T02:31:24;97702.75;;;23.72;61.42
70589;BME280;58152;49.202;18.744;2023-08-17T02:33:50;97703.06;;;23.69;61.20
70589;BME280;58152;49.202;18.744;2023-08-17T02:36:15;97706.19;;;23.65;61.70
70589;BME280;58152;49.202;18.744;2023-08-17T02:38:41;97708.25;;;23.61;61.89
70589;BME280;58152;49.202;18.744;2023-08-17T02:41:06;97705.72;;;23.59;61.49
70589;BME280;58152;49.202;18.744;2023-08-17T02:43:32;97706.19;;;23.65;61.54
70589;BME280;58152;49.202;18.744;2023-08-17T02:45:57;97703.75;;;23.62;61.52
70589;BME280;58152;49.202;18.744;2023-08-17T02:48:24;97709.09;;;23.62;61.47
70589;BME280;58152;49.202;18.744;2023-08-17T02:50:50;97700.66;;;23.66;61.24
70589;BME280;58152;49.202;18.744;2023-08-17T02:53:15;97694.44;;;23.56;61.59
70589;BME280;58152;49.202;18.744;2023-08-17T02:55:41;97692.78;;;23.55;61.18
70589;BME280;58152;49.202;18.744;2023-08-17T02:58:06;97693.47;;;23.57;61.33
70589;BME280;58152;49.202;18.744;2023-08-17T03:00:31;97691.78;;;23.56;61.31
70589;BME280;58152;49.202;18.744;2023-08-17T03:02:57;97698.38;;;23.62;61.38
70589;BME280;58152;49.202;18.744;2023-08-17T03:05:22;97695.88;;;23.60;61.32
70589;BME280;58152;49.202;18.744;2023-08-17T03:07:48;97683.75;;;23.56;61.25
70589;BME280;58152;49.202;18.744;2023-08-17T03:10:13;97684.75;;;23.55;61.73
70589;BME280;58152;49.202;18.744;2023-08-17T03:12:39;97679.09;;;23.48;61.75
70589;BME280;58152;49.202;18.744;2023-08-17T03:15:05;97689.22;;;23.54;61.90
70589;BME280;58152;49.202;18.744;2023-08-17T03:17:31;97691.22;;;23.52;61.64
70589;BME280;58152;49.202;18.744;2023-08-17T03:19:56;97694.72;;;23.53;61.60
70589;BME280;58152;49.202;18.744;2023-08-17T03:22:24;97689.38;;;23.53;61.61
70589;BME280;58152;49.202;18.744;2023-08-17T03:24:50;97690.38;;;23.52;61.50
70589;BME280;58152;49.202;18.744;2023-08-17T03:27:15;97699.53;;;23.49;61.29
70589;BME280;58152;49.202;18.744;2023-08-17T03:29:41;97693.47;;;23.47;61.69
70589;BME280;58152;49.202;18.744;2023-08-17T03:32:06;97693.06;;;23.42;61.45
70589;BME280;58152;49.202;18.744;2023-08-17T03:34:31;97685.16;;;23.41;61.48
70589;BME280;58152;49.202;18.744;2023-08-17T03:36:57;97700.25;;;23.42;61.83
70589;BME280;58152;49.202;18.744;2023-08-17T03:39:22;97687.97;;;23.39;61.46
70589;BME280;58152;49.202;18.744;2023-08-17T03:41:48;97692.06;;;23.33;61.92
70589;BME280;58152;49.202;18.744;2023-08-17T03:44:13;97692.50;;;23.29;61.80
70589;BME280;58152;49.202;18.744;2023-08-17T03:46:40;97686.56;;;23.25;62.22
70589;BME280;58152;49.202;18.744;2023-08-17T03:49:06;97697.13;;;23.27;62.21
70589;BME280;58152;49.202;18.744;2023-08-17T03:51:31;97696.44;;;23.25;62.08
70589;BME280;58152;49.202;18.744;2023-08-17T03:53:57;97704.03;;;23.20;62.32
70589;BME280;58152;49.202;18.744;2023-08-17T03:56:22;97699.38;;;23.12;62.40
70589;BME280;58152;49.202;18.744;2023-08-17T03:58:47;97697.13;;;23.07;62.67
70589;BME280;58152;49.202;18.744;2023-08-17T04:01:13;97705.41;;;23.04;62.82
70589;BME280;58152;49.202;18.744;2023-08-17T04:03:39;97707.81;;;23.07;62.97
70589;BME280;58152;49.202;18.744;2023-08-17T04:06:05;97701.19;;;23.02;63.19
70589;BME280;58152;49.202;18.744;2023-08-17T04:08:31;97697.69;;;23.01;63.03
70589;BME280;58152;49.202;18.744;2023-08-17T04:10:57;97700.34;;;23.01;62.97
70589;BME280;58152;49.202;18.744;2023-08-17T04:13:22;97700.34;;;23.01;63.04
70589;BME280;58152;49.202;18.744;2023-08-17T04:15:48;97709.50;;;22.99;63.08
70589;BME280;58152;49.202;18.744;2023-08-17T04:18:13;97706.81;;;22.99;63.13
70589;BME280;58152;49.202;18.744;2023-08-17T04:20:38;97709.50;;;22.99;63.38
70589;BME280;58152;49.202;18.744;2023-08-17T04:23:04;97706.66;;;22.91;63.54
70589;BME280;58152;49.202;18.744;2023-08-17T04:25:43;97703.41;;;22.87;63.73
70589;BME280;58152;49.202;18.744;2023-08-17T04:28:11;97702.25;;;22.80;63.80
70589;BME280;58152;49.202;18.744;2023-08-17T04:30:37;97698.72;;;22.79;63.73
70589;BME280;58152;49.202;18.744;2023-08-17T04:33:03;97707.75;;;22.78;63.66
70589;BME280;58152;49.202;18.744;2023-08-17T04:35:29;97712.38;;;22.86;63.51
70589;BME280;58152;49.202;18.744;2023-08-17T04:37:54;97712.78;;;22.81;63.73
70589;BME280;58152;49.202;18.744;2023-08-17T04:40:19;97716.91;;;22.86;63.74
70589;BME280;58152;49.202;18.744;2023-08-17T04:42:45;97704.78;;;22.81;63.93
70589;BME280;58152;49.202;18.744;2023-08-17T04:45:10;97722.53;;;22.82;63.90
70589;BME280;58152;49.202;18.744;2023-08-17T04:47:36;97717.75;;;22.86;63.48
70589;BME280;58152;49.202;18.744;2023-08-17T04:50:02;97720.41;;;22.86;63.69
70589;BME280;58152;49.202;18.744;2023-08-17T04:52:27;97718.63;;;22.87;63.56
70589;BME280;58152;49.202;18.744;2023-08-17T04:54:53;97719.56;;;22.86;63.40
70589;BME280;58152;49.202;18.744;2023-08-17T04:57:18;97716.78;;;22.87;63.48
70589;BME280;58152;49.202;18.744;2023-08-17T04:59:44;97721.03;;;22.90;63.59
70589;BME280;58152;49.202;18.744;2023-08-17T05:02:09;97728.06;;;22.91;63.35
70589;BME280;58152;49.202;18.744;2023-08-17T05:04:35;97723.69;;;22.90;63.35
70589;BME280;58152;49.202;18.744;2023-08-17T05:07:00;97730.16;;;22.87;63.88
70589;BME280;58152;49.202;18.744;2023-08-17T05:09:26;97729.72;;;22.82;63.80
70589;BME280;58152;49.202;18.744;2023-08-17T05:11:52;97729.84;;;22.80;63.95
70589;BME280;58152;49.202;18.744;2023-08-17T05:14:17;97731.66;;;22.80;63.92
70589;BME280;58152;49.202;18.744;2023-08-17T05:16:43;97727.31;;;22.79;64.03
70589;BME280;58152;49.202;18.744;2023-08-17T05:19:08;97716.63;;;22.79;64.11
70589;BME280;58152;49.202;18.744;2023-08-17T05:21:35;97727.31;;;22.79;63.94
70589;BME280;58152;49.202;18.744;2023-08-17T05:24:01;97714.19;;;22.76;63.79
70589;BME280;58152;49.202;18.744;2023-08-17T05:26:27;97726.47;;;22.78;64.13
70589;BME280;58152;49.202;18.744;2023-08-17T05:28:52;97719.13;;;22.80;64.02
70589;BME280;58152;49.202;18.744;2023-08-17T05:31:18;97729.00;;;22.80;64.36
70589;BME280;58152;49.202;18.744;2023-08-17T05:33:43;97723.50;;;22.81;64.12
70589;BME280;58152;49.202;18.744;2023-08-17T05:36:09;97729.97;;;22.79;64.53
70589;BME280;58152;49.202;18.744;2023-08-17T05:38:34;97723.22;;;22.75;64.63
70589;BME280;58152;49.202;18.744;2023-08-17T05:41:03;97715.03;;;22.76;64.76
70589;BME280;58152;49.202;18.744;2023-08-17T05:43:31;97735.91;;;22.82;64.85
70589;BME280;58152;49.202;18.744;2023-08-17T05:45:58;97731.53;;;22.81;64.89
70589;BME280;58152;49.202;18.744;2023-08-17T05:48:26;97729.44;;;22.85;64.95
70589;BME280;58152;49.202;18.744;2023-08-17T05:50:51;97728.44;;;22.86;64.70
70589;BME280;58152;49.202;18.744;2023-08-17T05:53:17;97734.09;;;22.83;64.78
70589;BME280;58152;49.202;18.744;2023-08-17T05:55:42;97729.16;;;22.88;64.60
70589;BME280;58152;49.202;18.744;2023-08-17T05:58:08;97730.00;;;22.89;64.74
70589;BME280;58152;49.202;18.744;2023-08-17T06:00:33;97727.09;;;22.92;64.66
70589;BME280;58152;49.202;18.744;2023-08-17T06:02:59;97734.13;;;22.93;64.35
70589;BME280;58152;49.202;18.744;2023-08-17T06:05:28;97721.97;;;22.89;64.00
70589;BME280;58152;49.202;18.744;2023-08-17T06:07:54;97730.16;;;22.87;63.95
70589;BME280;58152;49.202;18.744;2023-08-17T06:10:20;97729.06;;;22.90;63.91
70589;BME280;58152;49.202;18.744;2023-08-17T06:12:48;97731.47;;;22.93;64.19
70589;BME280;58152;49.202;18.744;2023-08-17T06:15:13;97729.06;;;22.90;63.89
70589;BME280;58152;49.202;18.744;2023-08-17T06:17:39;97723.44;;;22.93;63.74
70589;BME280;58152;49.202;18.744;2023-08-17T06:20:05;97724.84;;;22.97;63.71
70589;BME280;58152;49.202;18.744;2023-08-17T06:22:30;97714.56;;;22.92;63.77
70589;BME280;58152;49.202;18.744;2023-08-17T06:24:56;97714.28;;;22.95;63.38
70589;BME280;58152;49.202;18.744;2023-08-17T06:27:21;97722.03;;;22.98;63.55
70589;BME280;58152;49.202;18.744;2023-08-17T06:29:47;97728.22;;;22.99;63.43
70589;BME280;58152;49.202;18.744;2023-08-17T06:32:12;97713.84;;;23.00;63.60
70589;BME280;58152;49.202;18.744;2023-08-17T06:34:37;97707.53;;;23.01;63.41
70589;BME280;58152;49.202;18.744;2023-08-17T06:37:03;97715.00;;;23.07;63.48
70589;BME280;58152;49.202;18.744;2023-08-17T06:39:29;97716.69;;;23.08;63.73
70589;BME280;58152;49.202;18.744;2023-08-17T06:41:55;97717.25;;;23.12;63.46
70589;BME280;58152;49.202;18.744;2023-08-17T06:44:20;97724.03;;;23.16;63.54
70589;BME280;58152;49.202;18.744;2023-08-17T06:46:46;97711.66;;;23.15;63.57
70589;BME280;58152;49.202;18.744;2023-08-17T06:49:12;97723.75;;;23.19;63.31
70589;BME280;58152;49.202;18.744;2023-08-17T06:51:38;97718.53;;;23.17;62.94
70589;BME280;58152;49.202;18.744;2023-08-17T06:54:06;97718.94;;;23.22;63.16
70589;BME280;58152;49.202;18.744;2023-08-17T06:56:32;97725.31;;;23.21;62.69
70589;BME280;58152;49.202;18.744;2023-08-17T06:58:57;97719.09;;;23.21;62.77
70589;BME280;58152;49.202;18.744;2023-08-17T07:01:23;97722.88;;;23.18;62.78
70589;BME280;58152;49.202;18.744;2023-08-17T07:03:48;97722.63;;;23.21;62.83
70589;BME280;58152;49.202;18.744;2023-08-17T07:06:13;97716.44;;;23.21;62.69
70589;BME280;58152;49.202;18.744;2023-08-17T07:08:39;97739.00;;;23.28;62.88
70589;BME280;58152;49.202;18.744;2023-08-17T07:11:04;97718.41;;;23.28;63.11
70589;BME280;58152;49.202;18.744;2023-08-17T07:13:31;97711.91;;;23.31;63.05
70589;BME280;58152;49.202;18.744;2023-08-17T07:15:57;97716.16;;;23.33;63.27
70589;BME280;58152;49.202;18.744;2023-08-17T07:18:22;97722.09;;;23.37;63.27
70589;BME280;58152;49.202;18.744;2023-08-17T07:20:48;97731.66;;;23.40;63.09
70589;BME280;58152;49.202;18.744;2023-08-17T07:23:14;97737.41;;;23.45;62.85
70589;BME280;58152;49.202;18.744;2023-08-17T07:25:40;97733.91;;;23.44;62.86
70589;BME280;58152;49.202;18.744;2023-08-17T07:28:05;97725.88;;;23.44;62.63
70589;BME280;58152;49.202;18.744;2023-08-17T07:30:31;97723.50;;;23.51;62.75
70589;BME280;58152;49.202;18.744;2023-08-17T07:32:56;97728.28;;;23.47;62.52
70589;BME280;58152;49.202;18.744;2023-08-17T07:35:22;97734.06;;;23.52;62.37
70589;BME280;58152;49.202;18.744;2023-08-17T07:37:47;97734.47;;;23.57;62.67
70589;BME280;58152;49.202;18.744;2023-08-17T07:40:13;97740.41;;;23.61;62.59
70589;BME280;58152;49.202;18.744;2023-08-17T07:42:38;97736.56;;;23.64;62.39
70589;BME280;58152;49.202;18.744;2023-08-17T07:45:04;97726.84;;;23.63;62.60
70589;BME280;58152;49.202;18.744;2023-08-17T07:47:35;97731.69;;;23.69;62.07
70589;BME280;58152;49.202;18.744;2023-08-17T07:50:03;97729.84;;;23.69;62.11
70589;BME280;58152;49.202;18.744;2023-08-17T07:52:28;97723.34;;;23.72;62.03
70589;BME280;58152;49.202;18.744;2023-08-17T07:54:54;97718.84;;;23.72;61.99
70589;BME280;58152;49.202;18.744;2023-08-17T07:57:19;97713.88;;;23.77;61.77
70589;BME280;58152;49.202;18.744;2023-08-17T07:59:45;97723.22;;;23.83;61.75
70589;BME280;58152;49.202;18.744;2023-08-17T08:02:10;97727.41;;;23.86;61.76
70589;BME280;58152;49.202;18.744;2023-08-17T08:04:36;97717.84;;;23.83;61.38
70589;BME280;58152;49.202;18.744;2023-08-17T08:07:01;97721.94;;;23.87;61.12
70589;BME280;58152;49.202;18.744;2023-08-17T08:09:26;97716.69;;;23.86;61.21
70589;BME280;58152;49.202;18.744;2023-08-17T08:11:52;97719.09;;;23.89;61.26
70589;BME280;58152;49.202;18.744;2023-08-17T08:14:17;97721.78;;;23.89;61.55
70589;BME280;58152;49.202;18.744;2023-08-17T08:16:43;97724.03;;;23.93;61.45
70589;BME280;58152;49.202;18.744;2023-08-17T08:19:08;97720.91;;;23.98;61.36
70589;BME280;58152;49.202;18.744;2023-08-17T08:21:33;97725.13;;;24.00;60.89
70589;BME280;58152;49.202;18.744;2023-08-17T08:23:59;97712.00;;;24.07;60.92
70589;BME280;58152;49.202;18.744;2023-08-17T08:26:24;97712.56;;;24.11;60.39
70589;BME280;58152;49.202;18.744;2023-08-17T08:28:50;97711.41;;;24.13;60.50
70589;BME280;58152;49.202;18.744;2023-08-17T08:31:15;97712.97;;;24.16;59.80
70589;BME280;58152;49.202;18.744;2023-08-17T08:33:40;97706.78;;;24.15;60.00
70589;BME280;58152;49.202;18.744;2023-08-17T08:36:06;97704.63;;;24.19;59.50
70589;BME280;58152;49.202;18.744;2023-08-17T08:38:31;97699.97;;;24.21;59.52
70589;BME280;58152;49.202;18.744;2023-08-17T08:40:58;97695.47;;;24.21;59.73
70589;BME280;58152;49.202;18.744;2023-08-17T08:43:24;97695.84;;;24.26;59.66
70589;BME280;58152;49.202;18.744;2023-08-17T08:45:51;97692.06;;;24.29;59.50
70589;BME280;58152;49.202;18.744;2023-08-17T08:48:18;97682.00;;;24.31;59.36
70589;BME280;58152;49.202;18.744;2023-08-17T08:50:45;97678.06;;;24.35;59.28
70589;BME280;58152;49.202;18.744;2023-08-17T08:53:17;97680.03;;;24.43;59.20
70589;BME280;58152;49.202;18.744;2023-08-17T08:55:49;97675.50;;;24.43;58.67
70589;BME280;58152;49.202;18.744;2023-08-17T08:58:16;97672.00;;;24.43;58.86
70589;BME280;58152;49.202;18.744;2023-08-17T09:00:42;97673.66;;;24.44;58.90
70589;BME280;58152;49.202;18.744;2023-08-17T09:08:49;97661.78;;;24.46;58.52
70589;BME280;58152;49.202;18.744;2023-08-17T09:11:14;97664.47;;;24.46;58.04
70589;BME280;58152;49.202;18.744;2023-08-17T09:13:40;97655.00;;;24.52;57.76
70589;BME280;58152;49.202;18.744;2023-08-17T09:16:05;97658.09;;;24.57;57.72
70589;BME280;58152;49.202;18.744;2023-08-17T09:18:31;97662.28;;;24.59;57.25
70589;BME280;58152;49.202;18.744;2023-08-17T09:20:56;97655.94;;;24.61;57.27
70589;BME280;58152;49.202;18.744;2023-08-17T09:23:21;97661.38;;;24.69;57.73
70589;BME280;58152;49.202;18.744;2023-08-17T09:25:49;97646.13;;;24.69;57.24
70589;BME280;58152;49.202;18.744;2023-08-17T09:28:18;97654.72;;;24.73;57.11
70589;BME280;58152;49.202;18.744;2023-08-17T09:31:01;97643.69;;;24.76;56.30
70589;BME280;58152;49.202;18.744;2023-08-17T09:33:30;97642.25;;;24.81;56.55
70589;BME280;58152;49.202;18.744;2023-08-17T09:35:58;97650.56;;;24.88;56.16
70589;BME280;58152;49.202;18.744;2023-08-17T09:38:24;97647.25;;;24.94;55.74
70589;BME280;58152;49.202;18.744;2023-08-17T09:40:49;97648.47;;;25.00;55.50
70589;BME280;58152;49.202;18.744;2023-08-17T09:43:16;97643.91;;;25.10;55.33
70589;BME280;58152;49.202;18.744;2023-08-17T09:45:43;97632.88;;;25.13;55.41
70589;BME280;58152;49.202;18.744;2023-08-17T09:48:16;97626.72;;;25.21;55.08
70589;BME280;58152;49.202;18.744;2023-08-17T09:50:47;97621.75;;;25.26;54.79
70589;BME280;58152;49.202;18.744;2023-08-17T09:53:17;97615.19;;;25.28;54.74
70589;BME280;58152;49.202;18.744;2023-08-17T09:55:44;97617.78;;;25.38;54.21
70589;BME280;58152;49.202;18.744;2023-08-17T09:58:10;97620.25;;;25.49;53.84
70589;BME280;58152;49.202;18.744;2023-08-17T10:00:43;97621.38;;;25.47;54.04
70589;BME280;58152;49.202;18.744;2023-08-17T10:03:13;97624.44;;;25.52;53.81
70589;BME280;58152;49.202;18.744;2023-08-17T10:05:43;97628.50;;;25.56;53.41
70589;BME280;58152;49.202;18.744;2023-08-17T10:08:14;97625.13;;;25.54;53.10
70589;BME280;58152;49.202;18.744;2023-08-17T10:10:46;97623.59;;;25.51;52.37
70589;BME280;58152;49.202;18.744;2023-08-17T10:13:23;97628.97;;;25.51;52.22
70589;BME280;58152;49.202;18.744;2023-08-17T10:15:55;97648.47;;;25.53;52.65
70589;BME280;58152;49.202;18.744;2023-08-17T10:21:16;97676.63;;;25.49;54.26
70589;BME280;58152;49.202;18.744;2023-08-17T10:23:44;97663.13;;;25.41;55.47
70589;BME280;58152;49.202;18.744;2023-08-17T10:26:10;97654.16;;;25.32;55.61
70589;BME280;58152;49.202;18.744;2023-08-17T10:28:36;97658.78;;;25.22;54.87
70589;BME280;58152;49.202;18.744;2023-08-17T10:31:07;97660.28;;;25.07;54.59
70589;BME280;58152;49.202;18.744;2023-08-17T10:33:37;97665.28;;;25.02;55.12
70589;BME280;58152;49.202;18.744;2023-08-17T10:36:49;97670.22;;;24.97;55.53
70589;BME280;58152;49.202;18.744;2023-08-17T10:39:25;97673.38;;;24.92;56.54
70589;BME280;58152;49.202;18.744;2023-08-17T10:41:51;97670.06;;;24.80;57.69
70589;BME280;58152;49.202;18.744;2023-08-17T10:44:18;97673.75;;;24.79;58.01
70589;BME280;58152;49.202;18.744;2023-08-17T10:47:26;97667.13;;;24.74;58.96
70589;BME280;58152;49.202;18.744;2023-08-17T10:52:32;97690.69;;;24.80;59.54
70589;BME280;58152;49.202;18.744;2023-08-17T10:55:10;97677.75;;;24.93;59.64
70589;BME280;58152;49.202;18.744;2023-08-17T10:57:54;97678.75;;;24.92;61.26
70589;BME280;58152;49.202;18.744;2023-08-17T11:02:53;97669.22;;;25.43;60.08
70589;BME280;58152;49.202;18.744;2023-08-17T11:08:31;97681.47;;;25.46;61.10
70589;BME280;58152;49.202;18.744;2023-08-17T11:11:09;97680.09;;;25.42;60.63
70589;BME280;58152;49.202;18.744;2023-08-17T11:13:42;97675.34;;;25.35;60.37
70589;BME280;58152;49.202;18.744;2023-08-17T11:16:11;97688.41;;;25.30;60.32
70589;BME280;58152;49.202;18.744;2023-08-17T11:18:46;97690.84;;;25.24;61.03
70589;BME280;58152;49.202;18.744;2023-08-17T11:21:15;97700.34;;;25.18;60.64
70589;BME280;58152;49.202;18.744;2023-08-17T11:23:41;97713.22;;;25.15;60.90
70589;BME280;58152;49.202;18.744;2023-08-17T11:26:17;97708.47;;;25.08;61.68
70589;BME280;58152;49.202;18.744;2023-08-17T11:28:43;97714.28;;;25.04;61.15
70589;BME280;58152;49.202;18.744;2023-08-17T11:31:13;97719.09;;;25.00;61.62
70589;BME280;58152;49.202;18.744;2023-08-17T11:33:40;97712.88;;;25.00;61.63
70589;BME280;58152;49.202;18.744;2023-08-17T11:36:12;97712.03;;;24.99;61.63
70589;BME280;58152;49.202;18.744;2023-08-17T11:38:52;97709.75;;;25.04;60.97
70589;BME280;58152;49.202;18.744;2023-08-17T11:41:29;97703.81;;;25.01;61.04
70589;BME280;58152;49.202;18.744;2023-08-17T11:43:55;97702.41;;;25.06;61.20
70589;BME280;58152;49.202;18.744;2023-08-17T11:46:29;97703.38;;;25.05;61.10
70589;BME280;58152;49.202;18.744;2023-08-17T11:49:06;97708.69;;;25.15;61.86
70589;BME280;58152;49.202;18.744;2023-08-17T11:51:32;97707.41;;;25.19;61.33
70589;BME280;58152;49.202;18.744;2023-08-17T11:54:23;97707.19;;;25.30;62.49
70589;BME280;58152;49.202;18.744;2023-08-17T11:56:55;97704.81;;;25.27;61.50
70589;BME280;58152;49.202;18.744;2023-08-17T11:59:20;97706.47;;;25.28;61.19
70589;BME280;58152;49.202;18.744;2023-08-17T12:01:46;97707.19;;;25.30;61.39
70589;BME280;58152;49.202;18.744;2023-08-17T12:04:21;97706.47;;;25.28;61.46
70589;BME280;58152;49.202;18.744;2023-08-17T12:06:56;97712.69;;;25.29;61.56
70589;BME280;58152;49.202;18.744;2023-08-17T12:09:45;97710.00;;;25.29;61.92
70589;BME280;58152;49.202;18.744;2023-08-17T12:12:17;97714.72;;;25.27;61.72
70589;BME280;58152;49.202;18.744;2023-08-17T12:14:46;97714.03;;;25.25;62.18
70589;BME280;58152;49.202;18.744;2023-08-17T12:17:17;97708.78;;;25.23;62.23
70589;BME280;58152;49.202;18.744;2023-08-17T12:20:17;97712.47;;;25.22;62.65
70589;BME280;58152;49.202;18.744;2023-08-17T12:22:52;97691.75;;;25.15;61.71
70589;BME280;58152;49.202;18.744;2023-08-17T12:25:20;97698.13;;;25.14;60.70
70589;BME280;58152;49.202;18.744;2023-08-17T12:27:47;97694.06;;;25.09;60.14
70589;BME280;58152;49.202;18.744;2023-08-17T12:30:29;97697.88;;;25.07;59.09
70589;BME280;58152;49.202;18.744;2023-08-17T12:32:58;97687.88;;;24.99;58.84
70589;BME280;58152;49.202;18.744;2023-08-17T12:35:41;97681.97;;;24.96;57.52
70589;BME280;58152;49.202;18.744;2023-08-17T12:38:07;97684.81;;;24.94;57.88
70589;BME280;58152;49.202;18.744;2023-08-17T12:40:33;97682.44;;;24.91;57.77
70589;BME280;58152;49.202;18.744;2023-08-17T12:42:58;97660.03;;;24.82;58.04
70589;BME280;58152;49.202;18.744;2023-08-17T12:45:24;97655.81;;;24.80;57.71
70589;BME280;58152;49.202;18.744;2023-08-17T12:47:49;97634.25;;;24.72;57.78
70589;BME280;58152;49.202;18.744;2023-08-17T12:50:15;97638.94;;;24.70;57.56
70589;BME280;58152;49.202;18.744;2023-08-17T12:52:40;97638.25;;;24.68;57.57
70589;BME280;58152;49.202;18.744;2023-08-17T12:55:06;97624.16;;;24.66;57.32
70589;BME280;58152;49.202;18.744;2023-08-17T12:57:49;97626.13;;;24.64;57.32
70589;BME280;58152;49.202;18.744;2023-08-17T13:00:16;97632.59;;;24.71;57.68
70589;BME280;58152;49.202;18.744;2023-08-17T13:02:47;97631.59;;;24.72;57.57
70589;BME280;58152;49.202;18.744;2023-08-17T13:05:19;97633.59;;;24.70;57.87
70589;BME280;58152;49.202;18.744;2023-08-17T13:07:44;97635.09;;;24.72;57.75
70589;BME280;58152;49.202;18.744;2023-08-17T13:10:13;97625.75;;;24.76;57.96
70589;BME280;58152;49.202;18.744;2023-08-17T13:12:38;97624.75;;;24.77;57.43